sensor_id;sensor_type;location;lat;lon;timestamp;temperature;humidity
33023;DHT22;19390;51.460;5.710;2023-02-22T01:09:03;6.50;99.90
33023;DHT22;19390;51.460;5.710;2023-02-22T01:11:29;6.50;99.90
33023;DHT22;19390;51.460;5.710;2023-02-22T01:13:55;6.60;99.90
33023;DHT22;19390;51.460;5.710;2023-02-22T01:16:22;6.60;99.90
33023;DHT22;19390;51.460;5.710;2023-02-22T01:18:48;6.60;99.90
33023;DHT22;19390;51.460;5.710;2023-02-22T01:21:14;6.60;99.90
33023;DHT22;19390;51.460;5.710;2023-02-22T01:23:40;6.50;99.90
33023;DHT22;19390;51.460;5.710;2023-02-22T01:26:05;6.60;99.90
33023;DHT22;19390;51.460;5.710;2023-02-22T01:28:32;6.60;99.90
33023;DHT22;19390;51.460;5.710;2023-02-22T01:30:58;6.60;99.90
33023;DHT22;19390;51.460;5.710;2023-02-22T01:33:25;6.60;99.90
33023;DHT22;19390;51.460;5.710;2023-02-22T01:35:52;6.60;99.90
33023;DHT22;19390;51.460;5.710;2023-02-22T01:38:18;6.70;99.90
33023;DHT22;19390;51.460;5.710;2023-02-22T01:40:47;6.60;99.90
33023;DHT22;19390;51.460;5.710;2023-02-22T01:43:28;6.70;99.90
33023;DHT22;19390;51.460;5.710;2023-02-22T01:46:39;6.70;99.90
33023;DHT22;19390;51.460;5.710;2023-02-22T01:49:02;6.70;99.90
33023;DHT22;19390;51.460;5.710;2023-02-22T01:51:37;6.90;99.90
33023;DHT22;19390;51.460;5.710;2023-02-22T01:54:14;6.90;99.90
33023;DHT22;19390;51.460;5.710;2023-02-22T01:56:49;6.80;99.90
33023;DHT22;19390;51.460;5.710;2023-02-22T01:59:18;6.90;99.90
33023;DHT22;19390;51.460;5.710;2023-02-22T02:01:45;6.90;99.90
33023;DHT22;19390;51.460;5.710;2023-02-22T02:04:15;6.90;99.90
33023;DHT22;19390;51.460;5.710;2023-02-22T02:06:42;6.80;99.90
33023;DHT22;19390;51.460;5.710;2023-02-22T02:09:13;6.70;99.90
33023;DHT22;19390;51.460;5.710;2023-02-22T02:11:42;6.50;99.90
33023;DHT22;19390;51.460;5.710;2023-02-22T02:14:09;6.60;99.90
33023;DHT22;19390;51.460;5.710;2023-02-22T02:16:47;6.60;99.90
33023;DHT22;19390;51.460;5.710;2023-02-22T02:31:08;6.60;99.90
33023;DHT22;19390;51.460;5.710;2023-02-22T02:34:01;6.60;99.90
33023;DHT22;19390;51.460;5.710;2023-02-22T02:36:58;6.70;99.90
33023;DHT22;19390;51.460;5.710;2023-02-22T02:39:36;6.70;99.90
33023;DHT22;19390;51.460;5.710;2023-02-22T02:42:07;6.70;99.90
33023;DHT22;19390;51.460;5.710;2023-02-22T02:44:45;6.70;99.90
33023;DHT22;19390;51.460;5.710;2023-02-22T02:47:34;6.80;99.90
33023;DHT22;19390;51.460;5.710;2023-02-22T02:52:32;6.80;99.90
33023;DHT22;19390;51.460;5.710;2023-02-22T02:55:01;6.80;99.90
33023;DHT22;19390;51.460;5.710;2023-02-22T02:57:27;6.70;99.90
33023;DHT22;19390;51.460;5.710;2023-02-22T02:59:53;6.70;99.90
33023;DHT22;19390;51.460;5.710;2023-02-22T03:05:06;6.80;99.90
33023;DHT22;19390;51.460;5.710;2023-02-22T03:10:22;6.90;99.90
33023;DHT22;19390;51.460;5.710;2023-02-22T03:18:27;7.00;99.90
33023;DHT22;19390;51.460;5.710;2023-02-22T03:21:22;7.00;99.90
33023;DHT22;19390;51.460;5.710;2023-02-22T03:23:50;7.00;99.90
33023;DHT22;19390;51.460;5.710;2023-02-22T03:26:27;7.00;99.90
33023;DHT22;19390;51.460;5.710;2023-02-22T03:28:54;7.10;99.90
33023;DHT22;19390;51.460;5.710;2023-02-22T03:31:32;7.20;99.90
33023;DHT22;19390;51.460;5.710;2023-02-22T03:34:09;7.20;99.90
33023;DHT22;19390;51.460;5.710;2023-02-22T03:36:54;7.10;99.90
33023;DHT22;19390;51.460;5.710;2023-02-22T03:39:22;7.20;99.90
33023;DHT22;19390;51.460;5.710;2023-02-22T03:41:57;7.10;99.90
33023;DHT22;19390;51.460;5.710;2023-02-22T03:44:26;7.20;99.90
33023;DHT22;19390;51.460;5.710;2023-02-22T03:46:55;7.30;99.90
33023;DHT22;19390;51.460;5.710;2023-02-22T03:49:41;7.10;99.90
33023;DHT22;19390;51.460;5.710;2023-02-22T03:52:09;7.20;99.90
33023;DHT22;19390;51.460;5.710;2023-02-22T03:54:38;7.30;99.90
33023;DHT22;19390;51.460;5.710;2023-02-22T03:57:09;7.40;99.90
33023;DHT22;19390;51.460;5.710;2023-02-22T03:59:36;7.20;99.90
33023;DHT22;19390;51.460;5.710;2023-02-22T04:02:02;7.20;99.90
33023;DHT22;19390;51.460;5.710;2023-02-22T04:04:28;7.20;99.90
33023;DHT22;19390;51.460;5.710;2023-02-22T04:06:54;7.20;99.90
33023;DHT22;19390;51.460;5.710;2023-02-22T04:09:20;7.20;99.90
33023;DHT22;19390;51.460;5.710;2023-02-22T04:11:46;7.30;99.90
33023;DHT22;19390;51.460;5.710;2023-02-22T04:14:12;7.30;99.90
33023;DHT22;19390;51.460;5.710;2023-02-22T04:16:39;7.30;99.90
33023;DHT22;19390;51.460;5.710;2023-02-22T04:19:05;7.30;99.90
33023;DHT22;19390;51.460;5.710;2023-02-22T04:21:31;7.40;99.90
33023;DHT22;19390;51.460;5.710;2023-02-22T04:23:57;7.50;99.90
33023;DHT22;19390;51.460;5.710;2023-02-22T04:26:24;7.50;99.90
33023;DHT22;19390;51.460;5.710;2023-02-22T04:28:49;7.50;99.90
33023;DHT22;19390;51.460;5.710;2023-02-22T04:31:16;7.50;99.90
33023;DHT22;19390;51.460;5.710;2023-02-22T04:33:41;7.60;99.90
33023;DHT22;19390;51.460;5.710;2023-02-22T04:36:08;7.50;99.90
33023;DHT22;19390;51.460;5.710;2023-02-22T04:38:35;7.50;99.90
33023;DHT22;19390;51.460;5.710;2023-02-22T04:41:01;7.50;99.90
33023;DHT22;19390;51.460;5.710;2023-02-22T04:43:27;7.60;99.90
33023;DHT22;19390;51.460;5.710;2023-02-22T04:45:52;7.60;99.90
33023;DHT22;19390;51.460;5.710;2023-02-22T04:48:18;7.70;99.90
33023;DHT22;19390;51.460;5.710;2023-02-22T04:50:44;7.70;99.90
33023;DHT22;19390;51.460;5.710;2023-02-22T04:53:11;7.80;99.90
33023;DHT22;19390;51.460;5.710;2023-02-22T04:55:37;7.70;99.90
33023;DHT22;19390;51.460;5.710;2023-02-22T04:58:03;7.80;99.90
33023;DHT22;19390;51.460;5.710;2023-02-22T05:00:29;7.70;99.90
33023;DHT22;19390;51.460;5.710;2023-02-22T05:02:54;7.60;99.90
33023;DHT22;19390;51.460;5.710;2023-02-22T05:05:21;7.70;99.90
33023;DHT22;19390;51.460;5.710;2023-02-22T05:07:48;7.70;99.90
33023;DHT22;19390;51.460;5.710;2023-02-22T05:10:14;7.70;99.90
33023;DHT22;19390;51.460;5.710;2023-02-22T05:12:40;7.70;99.90
33023;DHT22;19390;51.460;5.710;2023-02-22T05:15:07;7.80;99.90
33023;DHT22;19390;51.460;5.710;2023-02-22T05:17:34;7.80;99.90
33023;DHT22;19390;51.460;5.710;2023-02-22T05:20:00;7.80;99.90
33023;DHT22;19390;51.460;5.710;2023-02-22T05:22:27;7.80;99.90
33023;DHT22;19390;51.460;5.710;2023-02-22T05:24:53;7.70;99.90
33023;DHT22;19390;51.460;5.710;2023-02-22T05:27:21;7.70;99.90
33023;DHT22;19390;51.460;5.710;2023-02-22T05:29:47;7.80;99.90
33023;DHT22;19390;51.460;5.710;2023-02-22T05:32:13;7.80;99.90
33023;DHT22;19390;51.460;5.710;2023-02-22T05:34:39;7.80;99.90
33023;DHT22;19390;51.460;5.710;2023-02-22T05:37:05;7.80;99.90
33023;DHT22;19390;51.460;5.710;2023-02-22T05:39:31;7.80;99.90
33023;DHT22;19390;51.460;5.710;2023-02-22T05:42:11;7.70;99.90
33023;DHT22;19390;51.460;5.710;2023-02-22T05:44:56;7.80;99.90
33023;DHT22;19390;51.460;5.710;2023-02-22T05:47:32;7.70;99.90
33023;DHT22;19390;51.460;5.710;2023-02-22T05:49:58;7.70;99.90
33023;DHT22;19390;51.460;5.710;2023-02-22T05:52:24;7.70;99.90
33023;DHT22;19390;51.460;5.710;2023-02-22T05:54:50;7.70;99.90
33023;DHT22;19390;51.460;5.710;2023-02-22T05:57:15;7.80;99.90
33023;DHT22;19390;51.460;5.710;2023-02-22T05:59:41;7.80;99.90
33023;DHT22;19390;51.460;5.710;2023-02-22T06:02:07;7.70;99.90
33023;DHT22;19390;51.460;5.710;2023-02-22T06:04:33;7.70;99.90
33023;DHT22;19390;51.460;5.710;2023-02-22T06:06:59;7.80;99.90
33023;DHT22;19390;51.460;5.710;2023-02-22T06:09:24;7.60;99.90
33023;DHT22;19390;51.460;5.710;2023-02-22T06:11:51;7.60;99.90
33023;DHT22;19390;51.460;5.710;2023-02-22T06:14:17;7.60;99.90
33023;DHT22;19390;51.460;5.710;2023-02-22T06:16:43;7.60;99.90
33023;DHT22;19390;51.460;5.710;2023-02-22T06:19:09;7.60;99.90
33023;DHT22;19390;51.460;5.710;2023-02-22T06:21:35;7.60;99.90
33023;DHT22;19390;51.460;5.710;2023-02-22T06:24:01;7.60;99.90
33023;DHT22;19390;51.460;5.710;2023-02-22T06:26:28;7.60;99.90
33023;DHT22;19390;51.460;5.710;2023-02-22T06:28:54;7.60;99.90
33023;DHT22;19390;51.460;5.710;2023-02-22T06:31:20;7.60;99.90
33023;DHT22;19390;51.460;5.710;2023-02-22T06:33:45;7.60;99.90
33023;DHT22;19390;51.460;5.710;2023-02-22T06:36:11;7.60;99.90
33023;DHT22;19390;51.460;5.710;2023-02-22T06:38:37;7.60;99.90
33023;DHT22;19390;51.460;5.710;2023-02-22T06:41:02;7.50;99.90
33023;DHT22;19390;51.460;5.710;2023-02-22T06:43:28;7.50;99.90
33023;DHT22;19390;51.460;5.710;2023-02-22T06:45:54;7.50;99.90
33023;DHT22;19390;51.460;5.710;2023-02-22T06:48:19;7.50;99.90
33023;DHT22;19390;51.460;5.710;2023-02-22T06:50:45;7.50;99.90
33023;DHT22;19390;51.460;5.710;2023-02-22T06:53:11;7.50;99.90
33023;DHT22;19390;51.460;5.710;2023-02-22T06:55:37;7.60;99.90
33023;DHT22;19390;51.460;5.710;2023-02-22T06:58:03;7.60;99.90
33023;DHT22;19390;51.460;5.710;2023-02-22T07:00:30;7.60;99.90
33023;DHT22;19390;51.460;5.710;2023-02-22T07:02:57;7.70;99.90
33023;DHT22;19390;51.460;5.710;2023-02-22T07:05:24;7.80;99.90
33023;DHT22;19390;51.460;5.710;2023-02-22T07:07:51;7.80;99.90
33023;DHT22;19390;51.460;5.710;2023-02-22T07:10:21;7.60;99.90
33023;DHT22;19390;51.460;5.710;2023-02-22T07:12:47;7.60;99.90
33023;DHT22;19390;51.460;5.710;2023-02-22T07:15:14;7.60;99.90
33023;DHT22;19390;51.460;5.710;2023-02-22T07:17:40;7.50;99.90
33023;DHT22;19390;51.460;5.710;2023-02-22T07:20:07;7.50;99.90
33023;DHT22;19390;51.460;5.710;2023-02-22T07:22:33;7.50;99.90
33023;DHT22;19390;51.460;5.710;2023-02-22T07:24:59;7.60;99.90
33023;DHT22;19390;51.460;5.710;2023-02-22T07:27:24;7.60;99.90
33023;DHT22;19390;51.460;5.710;2023-02-22T07:29:50;7.60;99.90
33023;DHT22;19390;51.460;5.710;2023-02-22T07:32:16;7.70;99.90
33023;DHT22;19390;51.460;5.710;2023-02-22T07:34:42;7.60;99.90
33023;DHT22;19390;51.460;5.710;2023-02-22T07:37:07;7.70;99.90
33023;DHT22;19390;51.460;5.710;2023-02-22T07:39:34;7.70;99.90
33023;DHT22;19390;51.460;5.710;2023-02-22T07:42:01;7.70;99.90
33023;DHT22;19390;51.460;5.710;2023-02-22T07:44:27;7.70;99.90
33023;DHT22;19390;51.460;5.710;2023-02-22T07:46:53;7.70;99.90
33023;DHT22;19390;51.460;5.710;2023-02-22T07:49:18;7.60;99.90
33023;DHT22;19390;51.460;5.710;2023-02-22T07:51:44;7.70;99.90
33023;DHT22;19390;51.460;5.710;2023-02-22T07:54:10;7.70;99.90
33023;DHT22;19390;51.460;5.710;2023-02-22T07:56:35;7.80;99.90
33023;DHT22;19390;51.460;5.710;2023-02-22T07:59:01;7.90;99.90
33023;DHT22;19390;51.460;5.710;2023-02-22T08:01:27;7.80;99.90
33023;DHT22;19390;51.460;5.710;2023-02-22T08:03:53;7.80;99.90
33023;DHT22;19390;51.460;5.710;2023-02-22T08:06:18;7.80;99.90
33023;DHT22;19390;51.460;5.710;2023-02-22T08:08:45;8.00;99.90
33023;DHT22;19390;51.460;5.710;2023-02-22T08:11:11;8.10;99.90
33023;DHT22;19390;51.460;5.710;2023-02-22T08:13:38;8.40;99.90
33023;DHT22;19390;51.460;5.710;2023-02-22T08:16:03;8.20;99.90
33023;DHT22;19390;51.460;5.710;2023-02-22T08:18:29;8.00;99.90
33023;DHT22;19390;51.460;5.710;2023-02-22T08:20:56;7.90;99.90
33023;DHT22;19390;51.460;5.710;2023-02-22T08:23:23;8.00;99.90
33023;DHT22;19390;51.460;5.710;2023-02-22T08:25:49;8.30;99.90
33023;DHT22;19390;51.460;5.710;2023-02-22T08:28:17;8.20;99.90
33023;DHT22;19390;51.460;5.710;2023-02-22T08:30:44;8.30;99.90
33023;DHT22;19390;51.460;5.710;2023-02-22T08:33:12;8.40;99.90
33023;DHT22;19390;51.460;5.710;2023-02-22T08:35:44;8.20;99.90
33023;DHT22;19390;51.460;5.710;2023-02-22T08:38:20;8.40;99.90
33023;DHT22;19390;51.460;5.710;2023-02-22T08:40:47;8.30;99.90
33023;DHT22;19390;51.460;5.710;2023-02-22T08:43:13;8.40;99.90
33023;DHT22;19390;51.460;5.710;2023-02-22T08:45:39;8.50;99.90
33023;DHT22;19390;51.460;5.710;2023-02-22T08:48:05;8.50;99.90
33023;DHT22;19390;51.460;5.710;2023-02-22T08:50:32;8.40;99.90
33023;DHT22;19390;51.460;5.710;2023-02-22T08:52:59;8.50;99.90
33023;DHT22;19390;51.460;5.710;2023-02-22T08:55:30;8.50;99.90
33023;DHT22;19390;51.460;5.710;2023-02-22T08:57:57;8.70;99.90
33023;DHT22;19390;51.460;5.710;2023-02-22T09:00:23;8.90;99.90
33023;DHT22;19390;51.460;5.710;2023-02-22T09:02:50;8.80;99.90
33023;DHT22;19390;51.460;5.710;2023-02-22T09:05:16;8.80;99.90
33023;DHT22;19390;51.460;5.710;2023-02-22T09:07:42;8.70;99.90
33023;DHT22;19390;51.460;5.710;2023-02-22T09:10:12;9.60;99.90
33023;DHT22;19390;51.460;5.710;2023-02-22T09:12:40;10.00;99.90
33023;DHT22;19390;51.460;5.710;2023-02-22T09:15:06;10.50;99.90
33023;DHT22;19390;51.460;5.710;2023-02-22T09:17:32;9.90;99.90
33023;DHT22;19390;51.460;5.710;2023-02-22T09:20:02;9.30;99.90
33023;DHT22;19390;51.460;5.710;2023-02-22T09:22:29;9.20;99.90
33023;DHT22;19390;51.460;5.710;2023-02-22T09:24:54;9.40;99.90
33023;DHT22;19390;51.460;5.710;2023-02-22T09:27:20;9.50;99.90
33023;DHT22;19390;51.460;5.710;2023-02-22T09:29:47;9.40;99.90
33023;DHT22;19390;51.460;5.710;2023-02-22T09:32:13;9.40;99.90
33023;DHT22;19390;51.460;5.710;2023-02-22T09:34:42;9.30;99.90
33023;DHT22;19390;51.460;5.710;2023-02-22T09:37:11;9.10;99.90
33023;DHT22;19390;51.460;5.710;2023-02-22T09:39:37;8.70;99.90
33023;DHT22;19390;51.460;5.710;2023-02-22T09:42:16;9.20;99.90
33023;DHT22;19390;51.460;5.710;2023-02-22T09:44:49;8.70;99.90
33023;DHT22;19390;51.460;5.710;2023-02-22T09:47:23;9.00;99.90
33023;DHT22;19390;51.460;5.710;2023-02-22T09:50:12;9.80;99.90
33023;DHT22;19390;51.460;5.710;2023-02-22T09:55:27;9.30;99.90
33023;DHT22;19390;51.460;5.710;2023-02-22T09:57:57;9.10;99.90
33023;DHT22;19390;51.460;5.710;2023-02-22T10:00:30;9.00;99.90
33023;DHT22;19390;51.460;5.710;2023-02-22T10:03:19;8.90;99.90
33023;DHT22;19390;51.460;5.710;2023-02-22T10:06:05;9.50;99.90
33023;DHT22;19390;51.460;5.710;2023-02-22T10:08:36;9.40;99.90
33023;DHT22;19390;51.460;5.710;2023-02-22T10:16:41;10.00;99.90
33023;DHT22;19390;51.460;5.710;2023-02-22T10:19:33;10.40;99.90
33023;DHT22;19390;51.460;5.710;2023-02-22T10:27:32;11.20;99.90
33023;DHT22;19390;51.460;5.710;2023-02-22T10:32:43;11.40;99.90
33023;DHT22;19390;51.460;5.710;2023-02-22T10:35:23;11.90;99.90
33023;DHT22;19390;51.460;5.710;2023-02-22T10:37:53;12.70;99.90
33023;DHT22;19390;51.460;5.710;2023-02-22T10:40:21;13.20;99.90
33023;DHT22;19390;51.460;5.710;2023-02-22T10:42:50;14.20;99.90
33023;DHT22;19390;51.460;5.710;2023-02-22T10:45:26;15.20;99.90
33023;DHT22;19390;51.460;5.710;2023-02-22T10:47:55;14.80;99.90
33023;DHT22;19390;51.460;5.710;2023-02-22T10:50:24;14.00;99.90
33023;DHT22;19390;51.460;5.710;2023-02-22T10:52:50;14.30;99.90
33023;DHT22;19390;51.460;5.710;2023-02-22T10:55:15;15.10;99.90
33023;DHT22;19390;51.460;5.710;2023-02-22T10:57:45;15.00;99.90
33023;DHT22;19390;51.460;5.710;2023-02-22T11:00:16;14.40;99.90
33023;DHT22;19390;51.460;5.710;2023-02-22T11:02:58;13.40;99.90
33023;DHT22;19390;51.460;5.710;2023-02-22T11:05:33;13.40;99.90
33023;DHT22;19390;51.460;5.710;2023-02-22T11:10:42;13.80;99.90
33023;DHT22;19390;51.460;5.710;2023-02-22T11:13:30;14.30;99.90
33023;DHT22;19390;51.460;5.710;2023-02-22T11:16:00;14.00;99.90
33023;DHT22;19390;51.460;5.710;2023-02-22T11:18:33;13.20;99.90
33023;DHT22;19390;51.460;5.710;2023-02-22T11:21:08;12.90;99.90
33023;DHT22;19390;51.460;5.710;2023-02-22T11:23:39;12.80;99.90
33023;DHT22;19390;51.460;5.710;2023-02-22T11:26:11;13.20;99.90
33023;DHT22;19390;51.460;5.710;2023-02-22T11:28:46;13.60;99.90
33023;DHT22;19390;51.460;5.710;2023-02-22T11:31:23;13.80;99.90
33023;DHT22;19390;51.460;5.710;2023-02-22T11:33:54;14.10;99.90
33023;DHT22;19390;51.460;5.710;2023-02-22T11:36:42;13.70;99.90
33023;DHT22;19390;51.460;5.710;2023-02-22T11:41:45;13.70;99.90
33023;DHT22;19390;51.460;5.710;2023-02-22T11:44:26;14.20;99.90
33023;DHT22;19390;51.460;5.710;2023-02-22T11:46:57;13.40;99.90
33023;DHT22;19390;51.460;5.710;2023-02-22T11:49:44;14.20;99.90
33023;DHT22;19390;51.460;5.710;2023-02-22T11:52:33;14.80;99.90
33023;DHT22;19390;51.460;5.710;2023-02-22T11:55:22;15.40;99.90
33023;DHT22;19390;51.460;5.710;2023-02-22T12:03:27;15.70;99.90
33023;DHT22;19390;51.460;5.710;2023-02-22T12:17:12;15.40;99.90
33023;DHT22;19390;51.460;5.710;2023-02-22T12:19:43;15.90;99.90
33023;DHT22;19390;51.460;5.710;2023-02-22T12:22:31;15.10;99.90
33023;DHT22;19390;51.460;5.710;2023-02-22T12:25:03;14.70;99.90
33023;DHT22;19390;51.460;5.710;2023-02-22T12:27:44;14.80;99.90
33023;DHT22;19390;51.460;5.710;2023-02-22T12:33:00;15.00;99.90
33023;DHT22;19390;51.460;5.710;2023-02-22T12:35:33;14.90;99.90
33023;DHT22;19390;51.460;5.710;2023-02-22T12:38:13;15.10;99.90
33023;DHT22;19390;51.460;5.710;2023-02-22T12:40:49;15.10;99.90
33023;DHT22;19390;51.460;5.710;2023-02-22T12:46:44;13.70;99.90
33023;DHT22;19390;51.460;5.710;2023-02-22T12:49:20;13.30;99.90
33023;DHT22;19390;51.460;5.710;2023-02-22T12:51:54;12.90;99.90
33023;DHT22;19390;51.460;5.710;2023-02-22T12:59:56;13.40;99.90
33023;DHT22;19390;51.460;5.710;2023-02-22T13:05:15;13.60;99.90
33023;DHT22;19390;51.460;5.710;2023-02-22T13:10:56;13.20;99.90
33023;DHT22;19390;51.460;5.710;2023-02-22T13:19:02;13.00;99.90
33023;DHT22;19390;51.460;5.710;2023-02-22T13:21:42;12.80;99.90
33023;DHT22;19390;51.460;5.710;2023-02-22T13:26:59;12.80;99.90
33023;DHT22;19390;51.460;5.710;2023-02-22T13:29:35;12.70;99.90
33023;DHT22;19390;51.460;5.710;2023-02-22T13:37:50;12.40;99.90
33023;DHT22;19390;51.460;5.710;2023-02-22T13:48:48;12.30;99.90
33023;DHT22;19390;51.460;5.710;2023-02-22T13:54:49;12.10;99.90
33023;DHT22;19390;51.460;5.710;2023-02-22T13:57:23;12.00;99.90
33023;DHT22;19390;51.460;5.710;2023-02-22T14:13:29;11.60;99.90
33023;DHT22;19390;51.460;5.710;2023-02-22T14:18:29;11.40;99.90
33023;DHT22;19390;51.460;5.710;2023-02-22T14:21:05;11.30;99.90
33023;DHT22;19390;51.460;5.710;2023-02-22T14:23:38;11.20;99.90
33023;DHT22;19390;51.460;5.710;2023-02-22T14:26:30;11.10;99.90
33023;DHT22;19390;51.460;5.710;2023-02-22T14:37:22;11.00;99.90
33023;DHT22;19390;51.460;5.710;2023-02-22T14:40:00;10.80;99.90
33023;DHT22;19390;51.460;5.710;2023-02-22T14:42:39;10.80;99.90
33023;DHT22;19390;51.460;5.710;2023-02-22T14:47:52;10.80;99.90
33023;DHT22;19390;51.460;5.710;2023-02-22T14:56:14;10.70;99.90
33023;DHT22;19390;51.460;5.710;2023-02-22T14:58:43;10.60;99.90
33023;DHT22;19390;51.460;5.710;2023-02-22T15:01:30;10.70;99.90
33023;DHT22;19390;51.460;5.710;2023-02-22T15:04:15;10.70;99.90
33023;DHT22;19390;51.460;5.710;2023-02-22T15:06:40;10.70;99.90
33023;DHT22;19390;51.460;5.710;2023-02-22T15:09:11;10.70;99.90
33023;DHT22;19390;51.460;5.710;2023-02-22T15:11:38;10.70;99.90
33023;DHT22;19390;51.460;5.710;2023-02-22T15:14:34;10.60;99.90
33023;DHT22;19390;51.460;5.710;2023-02-22T15:19:42;10.50;99.90
33023;DHT22;19390;51.460;5.710;2023-02-22T15:22:25;10.50;99.90
33023;DHT22;19390;51.460;5.710;2023-02-22T15:25:06;10.40;99.90
33023;DHT22;19390;51.460;5.710;2023-02-22T15:27:34;10.40;99.90
33023;DHT22;19390;51.460;5.710;2023-02-22T15:30:05;10.40;99.90
33023;DHT22;19390;51.460;5.710;2023-02-22T15:32:38;10.40;99.90
33023;DHT22;19390;51.460;5.710;2023-02-22T15:35:24;10.40;99.90
33023;DHT22;19390;51.460;5.710;2023-02-22T15:38:05;10.40;99.90
33023;DHT22;19390;51.460;5.710;2023-02-22T15:40:33;10.40;99.90
33023;DHT22;19390;51.460;5.710;2023-02-22T15:43:02;10.30;99.90
33023;DHT22;19390;51.460;5.710;2023-02-22T15:45:29;10.30;99.90
33023;DHT22;19390;51.460;5.710;2023-02-22T15:47:57;10.30;99.90
33023;DHT22;19390;51.460;5.710;2023-02-22T15:50:30;10.30;99.90
33023;DHT22;19390;51.460;5.710;2023-02-22T15:53:06;10.30;99.90
33023;DHT22;19390;51.460;5.710;2023-02-22T15:55:37;10.30;99.90
33023;DHT22;19390;51.460;5.710;2023-02-22T16:00:37;10.20;99.90
33023;DHT22;19390;51.460;5.710;2023-02-22T16:03:20;10.30;99.90
33023;DHT22;19390;51.460;5.710;2023-02-22T16:05:56;10.20;99.90
33023;DHT22;19390;51.460;5.710;2023-02-22T16:08:40;10.20;99.90
33023;DHT22;19390;51.460;5.710;2023-02-22T16:11:10;10.40;99.90
33023;DHT22;19390;51.460;5.710;2023-02-22T16:13:41;10.70;99.90
33023;DHT22;19390;51.460;5.710;2023-02-22T16:18:45;10.50;99.90
33023;DHT22;19390;51.460;5.710;2023-02-22T16:21:21;10.60;99.90
33023;DHT22;19390;51.460;5.710;2023-02-22T16:23:49;10.30;99.90
33023;DHT22;19390;51.460;5.710;2023-02-22T16:26:28;10.30;99.90
33023;DHT22;19390;51.460;5.710;2023-02-22T16:29:09;10.40;99.90
33023;DHT22;19390;51.460;5.710;2023-02-22T16:31:50;10.30;99.90
33023;DHT22;19390;51.460;5.710;2023-02-22T16:34:16;10.40;99.90
33023;DHT22;19390;51.460;5.710;2023-02-22T16:36:46;10.50;99.90
33023;DHT22;19390;51.460;5.710;2023-02-22T16:39:24;10.30;99.90
33023;DHT22;19390;51.460;5.710;2023-02-22T16:41:53;10.40;99.90
33023;DHT22;19390;51.460;5.710;2023-02-22T16:44:20;10.50;99.90
33023;DHT22;19390;51.460;5.710;2023-02-22T16:46:47;10.20;99.90
33023;DHT22;19390;51.460;5.710;2023-02-22T16:49:13;10.20;99.90
33023;DHT22;19390;51.460;5.710;2023-02-22T16:52:04;10.20;99.90
33023;DHT22;19390;51.460;5.710;2023-02-22T16:54:50;10.30;99.90
33023;DHT22;19390;51.460;5.710;2023-02-22T16:57:20;10.30;99.90
33023;DHT22;19390;51.460;5.710;2023-02-22T16:59:48;10.40;99.90
33023;DHT22;19390;51.460;5.710;2023-02-22T17:02:18;10.20;99.90
33023;DHT22;19390;51.460;5.710;2023-02-22T17:04:44;10.10;99.90
33023;DHT22;19390;51.460;5.710;2023-02-22T17:07:19;10.00;99.90
33023;DHT22;19390;51.460;5.710;2023-02-22T17:09:48;10.00;99.90
33023;DHT22;19390;51.460;5.710;2023-02-22T17:12:15;10.00;99.90
33023;DHT22;19390;51.460;5.710;2023-02-22T17:14:44;10.00;99.90
33023;DHT22;19390;51.460;5.710;2023-02-22T17:17:11;9.90;99.90
33023;DHT22;19390;51.460;5.710;2023-02-22T17:19:37;9.90;99.90
33023;DHT22;19390;51.460;5.710;2023-02-22T17:22:03;9.90;99.90
33023;DHT22;19390;51.460;5.710;2023-02-22T17:24:31;9.90;99.90
33023;DHT22;19390;51.460;5.710;2023-02-22T17:26:59;9.90;99.90
33023;DHT22;19390;51.460;5.710;2023-02-22T17:29:25;9.90;99.90
33023;DHT22;19390;51.460;5.710;2023-02-22T17:31:52;9.90;99.90
33023;DHT22;19390;51.460;5.710;2023-02-22T17:34:19;10.00;99.90
33023;DHT22;19390;51.460;5.710;2023-02-22T17:36:45;10.00;99.90
33023;DHT22;19390;51.460;5.710;2023-02-22T17:39:11;10.00;99.90
33023;DHT22;19390;51.460;5.710;2023-02-22T17:41:38;10.00;99.90
33023;DHT22;19390;51.460;5.710;2023-02-22T17:44:04;10.00;99.90
33023;DHT22;19390;51.460;5.710;2023-02-22T17:46:30;10.00;99.90
33023;DHT22;19390;51.460;5.710;2023-02-22T17:48:56;10.10;99.90
33023;DHT22;19390;51.460;5.710;2023-02-22T17:51:24;10.10;99.90
33023;DHT22;19390;51.460;5.710;2023-02-22T17:53:50;10.10;99.90
33023;DHT22;19390;51.460;5.710;2023-02-22T17:56:18;10.10;99.90
33023;DHT22;19390;51.460;5.710;2023-02-22T17:58:48;10.10;99.90
33023;DHT22;19390;51.460;5.710;2023-02-22T18:01:26;10.00;99.90
33023;DHT22;19390;51.460;5.710;2023-02-22T18:03:58;10.10;99.90
33023;DHT22;19390;51.460;5.710;2023-02-22T18:06:26;10.10;99.90
33023;DHT22;19390;51.460;5.710;2023-02-22T18:08:54;10.10;99.90
33023;DHT22;19390;51.460;5.710;2023-02-22T18:11:20;10.10;99.90
33023;DHT22;19390;51.460;5.710;2023-02-22T18:13:55;10.10;99.90
33023;DHT22;19390;51.460;5.710;2023-02-22T18:16:21;10.10;99.90
33023;DHT22;19390;51.460;5.710;2023-02-22T18:18:47;10.00;99.90
33023;DHT22;19390;51.460;5.710;2023-02-22T18:21:13;10.10;99.90
33023;DHT22;19390;51.460;5.710;2023-02-22T18:23:41;10.10;99.90
33023;DHT22;19390;51.460;5.710;2023-02-22T18:26:16;10.10;99.90
33023;DHT22;19390;51.460;5.710;2023-02-22T18:28:43;10.10;99.90
33023;DHT22;19390;51.460;5.710;2023-02-22T18:31:11;10.10;99.90
33023;DHT22;19390;51.460;5.710;2023-02-22T18:33:45;10.10;99.90
33023;DHT22;19390;51.460;5.710;2023-02-22T18:36:12;10.10;99.90
33023;DHT22;19390;51.460;5.710;2023-02-22T18:38:39;10.10;99.90
33023;DHT22;19390;51.460;5.710;2023-02-22T18:41:13;10.10;99.90
33023;DHT22;19390;51.460;5.710;2023-02-22T18:43:39;10.10;99.90
33023;DHT22;19390;51.460;5.710;2023-02-22T18:46:07;10.10;99.90
33023;DHT22;19390;51.460;5.710;2023-02-22T18:48:33;10.10;99.90
33023;DHT22;19390;51.460;5.710;2023-02-22T18:51:05;10.10;99.90
33023;DHT22;19390;51.460;5.710;2023-02-22T18:53:32;10.00;99.90
33023;DHT22;19390;51.460;5.710;2023-02-22T18:56:10;10.00;99.90
33023;DHT22;19390;51.460;5.710;2023-02-22T18:58:36;10.10;99.90
33023;DHT22;19390;51.460;5.710;2023-02-22T19:01:04;10.00;99.90
33023;DHT22;19390;51.460;5.710;2023-02-22T19:03:31;10.00;99.90
33023;DHT22;19390;51.460;5.710;2023-02-22T19:06:01;10.00;99.90
33023;DHT22;19390;51.460;5.710;2023-02-22T19:08:28;10.00;99.90
33023;DHT22;19390;51.460;5.710;2023-02-22T19:11:04;10.00;99.90
33023;DHT22;19390;51.460;5.710;2023-02-22T19:13:31;10.00;99.90
33023;DHT22;19390;51.460;5.710;2023-02-22T19:15:57;10.00;99.90
33023;DHT22;19390;51.460;5.710;2023-02-22T19:18:22;10.00;99.90
33023;DHT22;19390;51.460;5.710;2023-02-22T19:20:56;10.00;99.90
33023;DHT22;19390;51.460;5.710;2023-02-22T19:23:22;9.90;99.90
33023;DHT22;19390;51.460;5.710;2023-02-22T19:25:48;9.90;99.90
33023;DHT22;19390;51.460;5.710;2023-02-22T19:28:13;9.90;99.90
33023;DHT22;19390;51.460;5.710;2023-02-22T19:30:41;9.70;99.90
33023;DHT22;19390;51.460;5.710;2023-02-22T19:33:07;9.70;99.90
33023;DHT22;19390;51.460;5.710;2023-02-22T19:35:33;9.70;99.90